Time;durP1;ratioP1;P1;durP2;ratioP2;P2;SDS_P1;SDS_P2;PMS_P1;PMS_P2;Temp;Humidity;BMP_temperature;BMP_pressure;BME280_temperature;BME280_humidity;BME280_pressure;Samples;Min_cycle;Max_cycle;Signal;HPM_P1;HPM_P2
2024/02/18 00:00:32;;;;;;;1.48;0.50;;;14.60;75.70;;;;;;5029305;28;20091;-79
2024/02/18 00:03:17;;;;;;;0.60;0.50;;;14.60;75.70;;;;;;5038572;28;20044;-80
2024/02/18 00:06:01;;;;;;;0.50;0.50;;;14.60;75.70;;;;;;5036120;28;20736;-80
2024/02/18 00:08:46;;;;;;;0.60;0.60;;;14.60;75.70;;;;;;5038371;28;20047;-79
2024/02/18 00:11:31;;;;;;;0.63;0.60;;;14.60;75.70;;;;;;5035586;28;20040;-80
2024/02/18 00:14:15;;;;;;;0.50;0.50;;;14.60;75.70;;;;;;5035324;28;20091;-81
2024/02/18 00:17:00;;;;;;;0.50;0.50;;;14.60;75.80;;;;;;5029524;28;20506;-82
2024/02/18 00:19:44;;;;;;;0.60;0.50;;;14.60;75.80;;;;;;5029151;28;20056;-82
2024/02/18 00:22:29;;;;;;;0.63;0.40;;;14.60;75.90;;;;;;5026682;28;20064;-83
2024/02/18 00:25:14;;;;;;;0.38;0.38;;;14.60;75.90;;;;;;5020254;28;20089;-79
2024/02/18 00:27:58;;;;;;;0.50;0.50;;;14.60;75.90;;;;;;5032660;28;20087;-79
2024/02/18 00:30:43;;;;;;;0.60;0.50;;;14.60;75.90;;;;;;5032485;28;20163;-80
2024/02/18 00:33:27;;;;;;;0.60;0.50;;;14.60;75.90;;;;;;5036269;28;20282;-81
2024/02/18 00:36:13;;;;;;;0.50;0.40;;;14.60;75.90;;;;;;5037458;28;20178;-81
2024/02/18 00:38:57;;;;;;;0.40;0.40;;;14.60;75.90;;;;;;5034165;28;20515;-81
2024/02/18 00:41:42;;;;;;;1.80;0.75;;;14.60;75.90;;;;;;5035271;28;20426;-84
2024/02/18 00:44:27;;;;;;;1.95;0.75;;;14.60;76.00;;;;;;5036792;28;20114;-80
2024/02/18 00:47:14;;;;;;;0.52;0.52;;;14.60;75.90;;;;;;5037212;28;20043;-81
2024/02/18 00:49:58;;;;;;;0.50;0.50;;;14.60;75.90;;;;;;5030972;28;20475;-82
2024/02/18 00:52:43;;;;;;;0.82;0.82;;;14.60;76.00;;;;;;5021058;28;20124;-81
2024/02/18 00:55:27;;;;;;;0.40;0.30;;;14.60;76.00;;;;;;5051272;28;20039;-81
2024/02/18 00:58:13;;;;;;;0.50;0.50;;;14.60;76.00;;;;;;5029944;28;20499;-81
2024/02/18 01:00:57;;;;;;;0.95;0.40;;;14.60;76.00;;;;;;5021211;28;20598;-81
2024/02/18 01:03:41;;;;;;;0.70;0.60;;;14.60;76.00;;;;;;5031635;28;20051;-82
2024/02/18 01:06:25;;;;;;;0.80;0.60;;;14.60;76.00;;;;;;5041523;28;20039;-82
2024/02/18 01:09:10;;;;;;;1.75;0.57;;;14.60;76.00;;;;;;5038481;28;20099;-82
2024/02/18 01:11:54;;;;;;;0.60;0.43;;;14.60;76.00;;;;;;5033895;28;20194;-82
2024/02/18 01:14:39;;;;;;;0.90;0.63;;;14.60;76.10;;;;;;5031675;28;20210;-82
2024/02/18 01:17:24;;;;;;;0.40;0.40;;;14.60;76.10;;;;;;5036941;28;20052;-82
2024/02/18 01:20:09;;;;;;;0.65;0.65;;;14.60;76.10;;;;;;5029670;28;20060;-83
2024/02/18 01:22:53;;;;;;;0.40;0.40;;;14.60;76.10;;;;;;5035898;28;20083;-81
2024/02/18 01:25:38;;;;;;;0.30;0.30;;;14.60;76.10;;;;;;5036622;28;20630;-81
2024/02/18 01:28:24;;;;;;;0.80;0.50;;;14.60;76.10;;;;;;5039716;28;20595;-81
2024/02/18 01:31:08;;;;;;;0.60;0.50;;;14.60;76.10;;;;;;5040765;28;20178;-81
2024/02/18 01:33:52;;;;;;;0.40;0.40;;;14.60;76.10;;;;;;5034526;28;20537;-81
2024/02/18 01:36:37;;;;;;;0.45;0.40;;;14.60;76.10;;;;;;5039007;28;20048;-81
2024/02/18 01:39:21;;;;;;;0.50;0.50;;;14.60;76.20;;;;;;5038725;28;20106;-81
2024/02/18 01:42:06;;;;;;;2.63;0.40;;;14.60;76.20;;;;;;5036013;28;20508;-81
2024/02/18 01:44:51;;;;;;;0.40;0.30;;;14.60;76.20;;;;;;5028691;28;20097;-81
2024/02/18 01:47:38;;;;;;;0.50;0.40;;;14.60;76.20;;;;;;5037735;28;20083;-81
2024/02/18 01:50:24;;;;;;;0.57;0.38;;;14.50;76.00;;;;;;5036146;28;20115;-81
2024/02/18 01:53:09;;;;;;;0.43;0.43;;;14.50;76.10;;;;;;5029637;28;20523;-81
2024/02/18 01:55:55;;;;;;;0.40;0.40;;;14.50;76.10;;;;;;5039360;28;20040;-80
2024/02/18 01:58:39;;;;;;;0.45;0.40;;;14.50;76.10;;;;;;5042825;28;20574;-80
2024/02/18 02:01:25;;;;;;;0.68;0.45;;;14.50;76.10;;;;;;5027826;28;20224;-81
2024/02/18 02:04:10;;;;;;;0.73;0.45;;;14.50;76.20;;;;;;5038043;28;20183;-81
2024/02/18 02:06:54;;;;;;;0.40;0.40;;;14.50;76.10;;;;;;5038140;28;20502;-80
2024/02/18 02:09:39;;;;;;;1.05;0.50;;;14.50;76.20;;;;;;5042588;28;20036;-80
2024/02/18 02:12:23;;;;;;;0.60;0.50;;;14.50;76.20;;;;;;5041672;28;20043;-80
2024/02/18 02:15:10;;;;;;;0.52;0.30;;;14.50;76.20;;;;;;5033435;28;20047;-81
2024/02/18 02:17:54;;;;;;;0.98;0.60;;;14.50;76.20;;;;;;5038326;28;20051;-81
2024/02/18 02:20:39;;;;;;;0.30;0.30;;;14.50;76.20;;;;;;5018816;28;20504;-80
2024/02/18 02:23:23;;;;;;;0.50;0.47;;;14.50;76.20;;;;;;5036516;28;20611;-80
2024/02/18 02:26:11;;;;;;;0.75;0.60;;;14.50;76.20;;;;;;5033229;28;20080;-80
2024/02/18 02:29:15;;;;;;;0.40;0.40;;;14.50;76.20;;;;;;5034076;28;20739;-80
2024/02/18 02:32:00;;;;;;;0.50;0.40;;;14.50;76.30;;;;;;5041658;28;20044;-81
2024/02/18 02:34:45;;;;;;;0.30;0.30;;;14.50;76.20;;;;;;5039983;28;20083;-82
2024/02/18 02:37:30;;;;;;;0.38;0.35;;;14.50;76.20;;;;;;5040160;28;20098;-81
2024/02/18 02:40:15;;;;;;;0.30;0.30;;;14.50;76.20;;;;;;5042136;28;20171;-81
2024/02/18 02:43:01;;;;;;;0.55;0.40;;;14.50;76.20;;;;;;5037358;28;20430;-81
2024/02/18 02:45:45;;;;;;;0.57;0.30;;;14.50;76.30;;;;;;5047239;28;20502;-80
2024/02/18 02:48:29;;;;;;;0.85;0.50;;;14.50;76.30;;;;;;5042313;28;20068;-80
2024/02/18 02:51:14;;;;;;;0.30;0.30;;;14.50;76.30;;;;;;5036415;28;20128;-79
2024/02/18 02:53:58;;;;;;;0.80;0.40;;;14.50;76.40;;;;;;5041320;28;20120;-79
2024/02/18 02:56:43;;;;;;;0.85;0.40;;;14.50;76.40;;;;;;5044519;28;20163;-80
2024/02/18 02:59:27;;;;;;;0.77;0.30;;;14.40;76.80;;;;;;5038747;28;20102;-80
2024/02/18 03:02:12;;;;;;;0.20;0.20;;;14.50;76.50;;;;;;5039336;28;20116;-80
2024/02/18 03:04:56;;;;;;;0.30;0.30;;;14.50;76.50;;;;;;5047368;28;20540;-80
2024/02/18 03:07:40;;;;;;;0.40;0.40;;;14.50;76.50;;;;;;5042758;28;20120;-80
2024/02/18 03:10:25;;;;;;;0.82;0.40;;;14.50;76.50;;;;;;5045869;28;20044;-80
2024/02/18 03:13:11;;;;;;;0.82;0.30;;;14.50;76.60;;;;;;5043282;28;20452;-80
2024/02/18 03:15:55;;;;;;;0.88;0.40;;;14.40;76.30;;;;;;5037784;28;20052;-79
2024/02/18 03:18:40;;;;;;;0.32;0.20;;;14.40;76.30;;;;;;5043719;28;20037;-80
2024/02/18 03:21:26;;;;;;;0.28;0.28;;;14.40;76.40;;;;;;5040407;28;20511;-80
2024/02/18 03:24:11;;;;;;;0.65;0.30;;;14.40;76.40;;;;;;5046478;28;20036;-80
2024/02/18 03:26:55;;;;;;;0.30;0.30;;;14.40;76.40;;;;;;5045987;28;20078;-80
2024/02/18 03:29:41;;;;;;;0.55;0.30;;;14.40;76.40;;;;;;5040451;28;20044;-80
2024/02/18 03:32:25;;;;;;;1.48;0.43;;;14.40;76.40;;;;;;5039938;28;20059;-80
2024/02/18 03:35:11;;;;;;;0.73;0.40;;;14.40;76.40;;;;;;5044795;28;20040;-80
2024/02/18 03:37:56;;;;;;;0.68;0.30;;;14.40;76.40;;;;;;5039934;28;20120;-80
2024/02/18 03:40:40;;;;;;;0.30;0.30;;;14.40;76.40;;;;;;5045616;28;20056;-79
2024/02/18 03:43:29;;;;;;;0.45;0.45;;;14.40;76.40;;;;;;5049285;28;20079;-80
2024/02/18 03:46:13;;;;;;;0.30;0.30;;;14.40;76.40;;;;;;5034412;28;20044;-80
2024/02/18 03:48:58;;;;;;;1.40;0.40;;;14.40;76.50;;;;;;5031614;28;20079;-80
2024/02/18 03:51:42;;;;;;;0.30;0.30;;;14.40;76.50;;;;;;5025071;28;20071;-80
2024/02/18 03:54:27;;;;;;;0.30;0.30;;;14.40;76.50;;;;;;5053226;28;20574;-79
2024/02/18 03:57:11;;;;;;;0.65;0.45;;;14.40;76.60;;;;;;5040840;28;20051;-81
2024/02/18 03:59:56;;;;;;;0.30;0.30;;;14.30;76.40;;;;;;5042648;28;20450;-80
2024/02/18 04:02:42;;;;;;;1.25;0.60;;;14.30;76.40;;;;;;5035361;28;20098;-80
2024/02/18 04:05:27;;;;;;;0.45;0.45;;;14.40;76.60;;;;;;5043243;28;20624;-80
2024/02/18 04:08:12;;;;;;;0.60;0.30;;;14.40;76.60;;;;;;5046347;28;20056;-80
2024/02/18 04:10:56;;;;;;;0.70;0.38;;;14.30;76.40;;;;;;5045105;28;20075;-80
2024/02/18 04:13:42;;;;;;;0.30;0.30;;;14.40;76.90;;;;;;5040445;28;20465;-80
2024/02/18 04:16:26;;;;;;;0.40;0.30;;;14.40;76.70;;;;;;5056142;28;20626;-80
2024/02/18 04:19:11;;;;;;;0.70;0.70;;;14.40;76.70;;;;;;5039394;28;20099;-80
2024/02/18 04:21:56;;;;;;;0.57;0.43;;;14.30;76.50;;;;;;5045186;28;20095;-81
2024/02/18 04:24:40;;;;;;;0.57;0.40;;;14.30;76.50;;;;;;5044553;28;20115;-80
2024/02/18 04:27:25;;;;;;;0.75;0.75;;;14.30;76.60;;;;;;5046631;28;20121;-80
2024/02/18 04:30:09;;;;;;;0.43;0.43;;;14.30;76.50;;;;;;5049794;28;20040;-80
2024/02/18 04:32:54;;;;;;;1.05;0.40;;;14.30;76.50;;;;;;5048164;28;20083;-79
2024/02/18 04:35:38;;;;;;;1.65;0.40;;;14.30;76.50;;;;;;5045976;28;20036;-79
2024/02/18 04:38:23;;;;;;;0.82;0.40;;;14.30;76.60;;;;;;5038726;28;20044;-80
2024/02/18 04:41:08;;;;;;;0.98;0.60;;;14.30;76.60;;;;;;5040418;28;20075;-78
2024/02/18 04:43:53;;;;;;;0.60;0.60;;;14.30;76.60;;;;;;5044460;28;20122;-80
2024/02/18 04:46:37;;;;;;;0.45;0.45;;;14.30;76.60;;;;;;5037356;28;20054;-82
2024/02/18 04:49:22;;;;;;;1.02;0.50;;;14.30;76.60;;;;;;5033144;28;20079;-82
2024/02/18 04:52:07;;;;;;;0.55;0.55;;;14.30;76.70;;;;;;5045709;28;20075;-78
2024/02/18 04:54:51;;;;;;;0.45;0.45;;;14.20;76.50;;;;;;5049116;28;20056;-82
2024/02/18 04:57:36;;;;;;;0.75;0.43;;;14.30;76.70;;;;;;5048067;28;20055;-82
2024/02/18 05:00:21;;;;;;;0.43;0.43;;;14.30;76.70;;;;;;5049962;28;20114;-81
2024/02/18 05:03:05;;;;;;;0.40;0.40;;;14.20;76.60;;;;;;5046691;28;20040;-81
2024/02/18 05:05:50;;;;;;;0.52;0.40;;;14.20;76.60;;;;;;5030252;28;20551;-82
2024/02/18 05:08:35;;;;;;;0.50;0.50;;;14.20;76.60;;;;;;5046061;28;20087;-81
2024/02/18 05:11:19;;;;;;;0.50;0.50;;;14.20;76.60;;;;;;5049286;28;20051;-82
2024/02/18 05:14:04;;;;;;;1.27;0.50;;;14.20;76.60;;;;;;5035954;28;20083;-82
2024/02/18 05:16:49;;;;;;;0.50;0.50;;;14.20;76.60;;;;;;5047939;28;20441;-83
2024/02/18 05:19:33;;;;;;;0.60;0.50;;;14.20;76.60;;;;;;5045834;28;20113;-79
2024/02/18 05:22:21;;;;;;;0.60;0.60;;;14.20;76.60;;;;;;5044570;28;20116;-79
2024/02/18 05:25:06;;;;;;;0.45;0.45;;;14.20;76.60;;;;;;5047176;28;20090;-80
2024/02/18 05:27:51;;;;;;;1.48;0.50;;;14.20;76.60;;;;;;5047510;28;20550;-81
2024/02/18 05:30:35;;;;;;;0.90;0.40;;;14.20;76.60;;;;;;5045637;28;20052;-80
2024/02/18 05:33:19;;;;;;;1.60;0.60;;;14.20;76.60;;;;;;5047516;28;20101;-81
2024/02/18 05:36:05;;;;;;;0.90;0.60;;;14.20;76.70;;;;;;5038443;28;20044;-81
2024/02/18 05:38:49;;;;;;;0.70;0.70;;;14.20;76.70;;;;;;5044893;28;20511;-80
2024/02/18 05:41:34;;;;;;;1.15;0.40;;;14.20;76.70;;;;;;5051041;28;20541;-80
2024/02/18 05:44:18;;;;;;;0.82;0.50;;;14.20;76.70;;;;;;5044320;28;20753;-81
2024/02/18 05:47:03;;;;;;;0.63;0.40;;;14.10;76.60;;;;;;5044403;28;20931;-81
2024/02/18 05:49:47;;;;;;;0.63;0.47;;;14.10;76.60;;;;;;5039774;28;20150;-81
2024/02/18 05:52:32;;;;;;;0.50;0.32;;;14.10;76.60;;;;;;5037750;28;20090;-80
2024/02/18 05:55:17;;;;;;;0.75;0.40;;;14.10;76.60;;;;;;5045466;28;20040;-80
2024/02/18 05:58:02;;;;;;;0.38;0.30;;;14.10;76.60;;;;;;5028672;28;20096;-80
2024/02/18 06:00:46;;;;;;;0.60;0.40;;;14.10;76.70;;;;;;5032761;28;20614;-80
2024/02/18 06:03:32;;;;;;;0.50;0.50;;;14.10;76.70;;;;;;5033260;28;20043;-80
2024/02/18 06:06:16;;;;;;;0.50;0.50;;;14.10;76.70;;;;;;5037003;28;20044;-81
2024/02/18 06:09:02;;;;;;;0.70;0.50;;;14.10;76.70;;;;;;5041786;28;20593;-81
2024/02/18 06:11:46;;;;;;;0.55;0.40;;;14.10;76.70;;;;;;5042618;28;20553;-80
2024/02/18 06:14:31;;;;;;;0.52;0.50;;;14.10;76.70;;;;;;5040890;28;20251;-81
2024/02/18 06:17:16;;;;;;;0.93;0.63;;;14.10;76.70;;;;;;5042568;28;20060;-81
2024/02/18 06:20:02;;;;;;;1.42;0.50;;;14.10;76.80;;;;;;5029089;28;20036;-81
2024/02/18 06:22:47;;;;;;;1.50;0.50;;;14.10;76.80;;;;;;5041146;28;20700;-82
2024/02/18 06:25:36;;;;;;;1.33;1.13;;;14.10;76.80;;;;;;5040589;28;20084;-82
2024/02/18 06:28:20;;;;;;;1.98;0.68;;;14.10;76.80;;;;;;5027162;28;20056;-82
2024/02/18 06:31:04;;;;;;;1.30;0.60;;;14.00;76.60;;;;;;5040960;28;20056;-81
2024/02/18 06:33:49;;;;;;;0.70;0.60;;;14.00;76.60;;;;;;5047185;28;20055;-81
2024/02/18 06:36:36;;;;;;;1.45;0.77;;;14.00;76.60;;;;;;5039512;28;20098;-78
2024/02/18 06:39:20;;;;;;;0.88;0.63;;;14.00;76.70;;;;;;5038384;28;20124;-80
2024/02/18 06:42:04;;;;;;;1.40;0.80;;;14.00;76.70;;;;;;5038085;28;20048;-82
2024/02/18 06:44:49;;;;;;;2.38;0.95;;;14.00;76.70;;;;;;5032338;28;20090;-81
2024/02/18 06:47:33;;;;;;;1.85;1.30;;;13.90;76.50;;;;;;5041879;28;20087;-80
2024/02/18 06:50:18;;;;;;;2.45;1.00;;;14.00;76.70;;;;;;5032184;28;20154;-80
2024/02/18 06:53:03;;;;;;;1.77;0.82;;;14.00;76.70;;;;;;5039120;28;20183;-79
2024/02/18 06:55:47;;;;;;;1.20;0.95;;;13.90;76.60;;;;;;5038195;28;20075;-80
2024/02/18 06:58:32;;;;;;;0.90;0.80;;;13.90;76.60;;;;;;5027256;28;20051;-79
2024/02/18 07:01:18;;;;;;;1.48;0.93;;;13.90;76.60;;;;;;5040552;28;20044;-78
2024/02/18 07:04:04;;;;;;;1.08;0.70;;;13.90;76.70;;;;;;5046154;28;20051;-77
2024/02/18 07:06:48;;;;;;;1.42;1.10;;;13.90;76.70;;;;;;5032536;28;20503;-78
2024/02/18 07:09:35;;;;;;;2.53;0.75;;;13.90;76.70;;;;;;5041271;28;20075;-78
2024/02/18 07:12:20;;;;;;;1.20;0.90;;;13.90;76.70;;;;;;5033674;28;20056;-78
2024/02/18 07:15:05;;;;;;;0.80;0.80;;;13.90;76.70;;;;;;5042207;28;20412;-79
2024/02/18 07:17:49;;;;;;;1.38;0.70;;;13.90;76.80;;;;;;5031484;28;20095;-78
2024/02/18 07:20:36;;;;;;;2.40;0.90;;;13.90;76.70;;;;;;5029821;28;20464;-79
2024/02/18 07:23:21;;;;;;;2.35;1.85;;;13.80;76.50;;;;;;5044151;28;20129;-78
2024/02/18 07:26:15;;;;;;;2.67;1.73;;;13.90;76.70;;;;;;5033374;28;20075;-78
2024/02/18 07:28:59;;;;;;;1.63;1.20;;;13.80;76.60;;;;;;5033724;28;20036;-80
2024/02/18 07:31:44;;;;;;;3.03;1.42;;;13.90;76.70;;;;;;5032011;28;20056;-78
2024/02/18 07:34:29;;;;;;;3.15;1.13;;;13.80;76.60;;;;;;5032675;28;20040;-79
2024/02/18 07:37:13;;;;;;;1.77;1.58;;;13.80;76.60;;;;;;5020753;28;20090;-79
2024/02/18 07:39:58;;;;;;;2.00;1.48;;;13.80;76.60;;;;;;5035108;28;20075;-79
2024/02/18 07:42:44;;;;;;;1.75;1.20;;;13.80;76.60;;;;;;5033055;28;20036;-80
2024/02/18 07:45:28;;;;;;;2.47;1.45;;;13.80;76.60;;;;;;5054634;28;20347;-78
2024/02/18 07:48:13;;;;;;;2.40;1.35;;;13.80;76.60;;;;;;5042401;28;20048;-77
2024/02/18 07:50:57;;;;;;;2.78;1.80;;;13.80;76.60;;;;;;5033146;28;20055;-79
2024/02/18 07:53:42;;;;;;;8.43;1.80;;;13.80;76.60;;;;;;5019154;28;20155;-79
2024/02/18 07:56:27;;;;;;;3.10;1.98;;;13.70;76.60;;;;;;5036899;28;20051;-79
2024/02/18 07:59:12;;;;;;;5.70;1.88;;;13.80;77.00;;;;;;5030654;28;20040;-78
2024/02/18 08:01:57;;;;;;;4.72;1.75;;;13.80;77.50;;;;;;5034836;28;20433;-78
2024/02/18 08:04:42;;;;;;;5.05;2.28;;;13.90;77.10;;;;;;5032849;28;20040;-79
2024/02/18 08:07:27;;;;;;;3.05;1.70;;;13.90;77.10;;;;;;5029293;28;20083;-79
2024/02/18 08:10:11;;;;;;;2.22;1.80;;;13.90;77.10;;;;;;5034619;28;20122;-78
2024/02/18 08:12:56;;;;;;;3.03;2.15;;;13.90;77.10;;;;;;5028917;28;20343;-78
2024/02/18 08:15:40;;;;;;;1.88;1.70;;;13.90;77.00;;;;;;5024463;28;20088;-78
2024/02/18 08:18:25;;;;;;;2.17;1.58;;;13.90;77.00;;;;;;5028942;28;20048;-78
2024/02/18 08:21:10;;;;;;;4.13;1.63;;;14.00;77.10;;;;;;5036026;28;20040;-78
2024/02/18 08:23:54;;;;;;;3.08;1.60;;;13.90;77.00;;;;;;5025100;28;20053;-78
2024/02/18 08:26:39;;;;;;;2.05;1.70;;;14.00;77.10;;;;;;5024779;28;20253;-78
2024/02/18 08:29:24;;;;;;;2.15;1.70;;;14.00;77.10;;;;;;5028063;28;20590;-78
2024/02/18 08:32:09;;;;;;;3.50;2.10;;;13.90;77.00;;;;;;5024721;28;20059;-78
2024/02/18 08:34:53;;;;;;;2.53;2.33;;;14.00;77.00;;;;;;5032886;28;20091;-77
2024/02/18 08:37:38;;;;;;;3.30;2.45;;;14.10;77.10;;;;;;5028295;28;20060;-77
2024/02/18 08:40:22;;;;;;;2.00;1.80;;;14.10;77.00;;;;;;5035109;28;20479;-78
2024/02/18 08:43:08;;;;;;;2.70;2.00;;;14.10;76.90;;;;;;5034797;28;20052;-78
2024/02/18 08:45:52;;;;;;;2.90;2.60;;;14.10;76.90;;;;;;5031015;28;20431;-76
2024/02/18 08:48:37;;;;;;;2.40;2.20;;;14.20;77.00;;;;;;5029827;28;20060;-81
2024/02/18 08:51:21;;;;;;;2.90;2.22;;;14.20;76.90;;;;;;5022198;28;20127;-76
2024/02/18 08:54:09;;;;;;;2.03;1.83;;;14.20;76.80;;;;;;5040854;28;20232;-76
2024/02/18 08:56:55;;;;;;;3.78;1.95;;;14.20;76.80;;;;;;5026992;28;20087;-76
2024/02/18 08:59:42;;;;;;;2.03;1.85;;;14.30;76.90;;;;;;5044282;28;20121;-76
2024/02/18 09:02:26;;;;;;;2.28;2.08;;;14.30;76.80;;;;;;5037550;28;20449;-76
2024/02/18 09:05:11;;;;;;;2.35;2.05;;;14.30;76.80;;;;;;5044565;28;20055;-78
2024/02/18 09:07:56;;;;;;;2.08;1.85;;;14.30;76.70;;;;;;5034570;28;20174;-76
2024/02/18 09:10:43;;;;;;;3.00;2.10;;;14.30;76.70;;;;;;5030031;28;20126;-77
2024/02/18 09:13:27;;;;;;;3.50;2.00;;;14.30;76.70;;;;;;5031925;28;20047;-78
2024/02/18 09:16:13;;;;;;;3.03;2.30;;;14.40;76.80;;;;;;5036956;28;20246;-77
2024/02/18 09:18:57;;;;;;;2.33;2.05;;;14.40;76.80;;;;;;5032568;28;20579;-78
2024/02/18 09:21:43;;;;;;;2.88;1.98;;;14.40;76.70;;;;;;5038337;28;20063;-77
2024/02/18 09:24:28;;;;;;;2.78;2.28;;;14.40;76.70;;;;;;5034740;28;20412;-76
2024/02/18 09:27:13;;;;;;;4.35;2.63;;;14.50;76.80;;;;;;5032654;28;20511;-77
2024/02/18 09:29:57;;;;;;;2.67;2.35;;;14.50;76.70;;;;;;5034324;28;20052;-77
2024/02/18 09:32:44;;;;;;;2.72;2.50;;;14.50;76.70;;;;;;5036164;28;20539;-77
2024/02/18 09:35:29;;;;;;;4.18;2.88;;;14.60;76.80;;;;;;5039065;28;20467;-77
2024/02/18 09:38:14;;;;;;;4.15;2.50;;;14.60;76.70;;;;;;5034674;28;20080;-77
2024/02/18 09:41:00;;;;;;;3.28;2.60;;;14.60;76.60;;;;;;5038960;28;20031;-77
2024/02/18 09:43:45;;;;;;;2.90;2.55;;;14.70;76.70;;;;;;5035716;28;20457;-78
2024/02/18 09:46:32;;;;;;;3.50;2.67;;;14.70;76.70;;;;;;5022684;28;20060;-77
2024/02/18 09:49:18;;;;;;;3.45;2.65;;;14.70;76.60;;;;;;5025521;28;20045;-78
2024/02/18 09:52:02;;;;;;;3.45;2.60;;;14.70;76.50;;;;;;5038057;28;20048;-78
2024/02/18 09:54:47;;;;;;;3.58;2.50;;;14.80;76.70;;;;;;5039767;28;20048;-77
2024/02/18 09:57:31;;;;;;;3.38;2.58;;;14.80;76.60;;;;;;5029696;28;20043;-78
2024/02/18 10:00:18;;;;;;;3.60;2.78;;;14.90;76.70;;;;;;5021747;28;20044;-77
2024/02/18 10:03:03;;;;;;;3.15;2.55;;;15.00;76.80;;;;;;5038893;28;20039;-78
2024/02/18 10:05:47;;;;;;;3.67;2.75;;;15.00;76.60;;;;;;5035804;28;20191;-77
2024/02/18 10:08:43;;;;;;;3.80;2.72;;;15.10;76.70;;;;;;5033754;28;20067;-78
2024/02/18 10:11:30;;;;;;;3.40;2.50;;;15.10;76.60;;;;;;5035379;28;20075;-77
2024/02/18 10:14:21;;;;;;;3.05;2.58;;;15.20;76.70;;;;;;5038782;28;20067;-77
2024/02/18 10:17:06;;;;;;;3.17;2.83;;;15.20;76.60;;;;;;5038429;28;20469;-78
2024/02/18 10:19:51;;;;;;;2.92;2.58;;;15.30;76.50;;;;;;5041884;28;20589;-76
2024/02/18 10:22:36;;;;;;;3.22;2.40;;;15.40;76.60;;;;;;5026622;28;20048;-78
2024/02/18 10:25:20;;;;;;;2.90;2.25;;;15.50;76.70;;;;;;5035713;28;20035;-77
2024/02/18 10:28:05;;;;;;;2.95;2.35;;;15.60;76.60;;;;;;5034653;28;20098;-77
2024/02/18 10:30:50;;;;;;;2.78;2.42;;;15.70;76.60;;;;;;5031431;28;20083;-78
2024/02/18 10:33:35;;;;;;;2.78;2.13;;;15.90;76.70;;;;;;5036012;28;20152;-78
2024/02/18 10:36:24;;;;;;;3.05;2.63;;;16.00;76.50;;;;;;5036377;28;20079;-79
2024/02/18 10:39:13;;;;;;;3.65;2.35;;;16.10;76.40;;;;;;5032149;28;20151;-78
2024/02/18 10:42:11;;;;;;;2.42;1.80;;;16.10;76.30;;;;;;5033797;28;20090;-77
2024/02/18 10:44:57;;;;;;;2.28;1.92;;;16.20;76.20;;;;;;5022850;28;20044;-77
2024/02/18 10:47:48;;;;;;;2.83;1.90;;;16.20;76.20;;;;;;5036034;28;20112;-77
2024/02/18 10:50:36;;;;;;;2.90;2.50;;;16.20;76.10;;;;;;5032032;28;20048;-77
2024/02/18 10:53:25;;;;;;;3.50;2.30;;;16.10;76.00;;;;;;5028897;28;20400;-77
2024/02/18 10:56:22;;;;;;;2.30;1.95;;;16.20;76.20;;;;;;5035851;28;20086;-77
2024/02/18 10:59:21;;;;;;;2.15;1.70;;;16.20;76.20;;;;;;5034199;28;20506;-77
2024/02/18 11:02:13;;;;;;;2.10;1.92;;;16.20;76.20;;;;;;5036205;28;20523;-77
2024/02/18 11:04:58;;;;;;;2.63;2.08;;;16.20;76.20;;;;;;5036513;28;20466;-77
2024/02/18 11:07:43;;;;;;;2.88;2.47;;;16.20;76.10;;;;;;5037193;28;20040;-76
2024/02/18 11:10:28;;;;;;;3.05;2.20;;;16.20;76.00;;;;;;5036792;28;20459;-78
2024/02/18 11:13:14;;;;;;;3.15;2.33;;;16.30;76.10;;;;;;5033523;28;20111;-77
2024/02/18 11:16:00;;;;;;;2.55;2.35;;;16.30;76.00;;;;;;5035191;28;20507;-78
2024/02/18 11:18:45;;;;;;;2.78;2.30;;;16.30;75.90;;;;;;5037605;28;20547;-76
2024/02/18 11:21:31;;;;;;;2.42;2.22;;;16.30;75.80;;;;;;5038510;28;20474;-77
2024/02/18 11:24:16;;;;;;;2.33;2.13;;;16.30;75.80;;;;;;5030775;28;20502;-76
2024/02/18 11:27:00;;;;;;;2.88;2.20;;;16.30;75.70;;;;;;5030746;28;20044;-79
2024/02/18 11:29:47;;;;;;;2.63;2.35;;;16.40;75.70;;;;;;5034333;28;20889;-79
2024/02/18 11:32:33;;;;;;;2.40;2.20;;;16.50;75.70;;;;;;5019264;28;20106;-78
2024/02/18 11:35:18;;;;;;;2.75;2.50;;;16.50;75.60;;;;;;5037506;28;20044;-78
2024/02/18 11:38:03;;;;;;;2.63;2.13;;;16.50;75.60;;;;;;5044855;28;20099;-79
2024/02/18 11:40:49;;;;;;;2.42;2.20;;;16.40;75.30;;;;;;5034003;28;20032;-77
2024/02/18 11:43:35;;;;;;;2.67;2.03;;;16.50;75.50;;;;;;5035695;28;20090;-77
2024/02/18 11:46:26;;;;;;;2.55;2.25;;;16.60;75.70;;;;;;5033232;28;20412;-77
2024/02/18 11:49:11;;;;;;;2.70;2.22;;;16.70;75.70;;;;;;5032477;28;20063;-78
2024/02/18 11:51:57;;;;;;;2.63;2.00;;;16.80;75.50;;;;;;5038181;28;20201;-78
2024/02/18 11:54:43;;;;;;;2.88;2.15;;;17.00;75.50;;;;;;5028415;28;20907;-77
2024/02/18 11:57:28;;;;;;;2.88;2.30;;;17.10;75.40;;;;;;5006496;28;20498;-77
2024/02/18 12:00:13;;;;;;;2.72;2.10;;;17.20;75.20;;;;;;5032589;28;20514;-77
2024/02/18 12:03:01;;;;;;;6.03;2.95;;;17.30;75.10;;;;;;5037114;28;20090;-76
2024/02/18 12:05:45;;;;;;;4.07;3.67;;;17.40;74.90;;;;;;5034146;28;20044;-77
2024/02/18 12:08:30;;;;;;;3.17;2.40;;;17.50;74.80;;;;;;5030881;28;20597;-76
2024/02/18 12:11:16;;;;;;;3.97;2.83;;;17.60;74.70;;;;;;5030838;28;20138;-77
2024/02/18 12:14:01;;;;;;;2.90;2.28;;;17.80;74.70;;;;;;5034220;28;20087;-77
2024/02/18 12:16:50;;;;;;;2.75;2.50;;;17.90;74.50;;;;;;5031766;28;20300;-77
2024/02/18 12:19:35;;;;;;;2.50;2.30;;;18.00;74.50;;;;;;5034042;28;20377;-78
2024/02/18 12:22:24;;;;;;;6.20;4.70;;;18.10;74.40;;;;;;5037961;28;20590;-78
2024/02/18 12:25:09;;;;;;;7.15;5.43;;;18.20;74.20;;;;;;5036579;28;20039;-78
2024/02/18 12:27:53;;;;;;;6.90;6.03;;;18.40;74.10;;;;;;5019591;28;20083;-78
2024/02/18 12:30:38;;;;;;;9.02;6.28;;;18.40;73.80;;;;;;5029838;28;20400;-78
2024/02/18 12:33:23;;;;;;;11.05;9.88;;;18.50;73.70;;;;;;5036757;28;20428;-79
2024/02/18 12:36:07;;;;;;;7.90;7.10;;;18.50;73.50;;;;;;5033011;28;20063;-78
2024/02/18 12:38:52;;;;;;;11.10;8.90;;;18.60;73.50;;;;;;5040499;28;20056;-78
2024/02/18 12:41:37;;;;;;;12.15;9.75;;;18.70;73.40;;;;;;5020042;28;20043;-77
2024/02/18 12:44:21;;;;;;;12.02;9.35;;;18.80;73.40;;;;;;5032664;28;20079;-77
2024/02/18 12:47:07;;;;;;;10.98;9.48;;;18.80;73.20;;;;;;5049797;28;20078;-77
2024/02/18 12:50:02;;;;;;;11.38;9.93;;;18.90;73.10;;;;;;5030673;28;20498;-78
2024/02/18 12:52:47;;;;;;;10.90;9.02;;;19.00;72.80;;;;;;5035161;28;20238;-77
2024/02/18 12:55:34;;;;;;;11.15;9.07;;;19.00;72.60;;;;;;5040680;28;20295;-77
2024/02/18 12:58:19;;;;;;;13.00;10.27;;;19.00;72.50;;;;;;5031292;28;20068;-76
2024/02/18 13:01:04;;;;;;;11.65;10.02;;;19.10;72.70;;;;;;5040394;28;20044;-77
2024/02/18 13:03:51;;;;;;;11.57;9.73;;;19.10;72.50;;;;;;5040815;28;20040;-78
2024/02/18 13:06:36;;;;;;;12.82;11.32;;;19.10;72.30;;;;;;5031821;28;20056;-76
2024/02/18 13:09:25;;;;;;;11.23;9.80;;;19.20;72.40;;;;;;5042670;28;20044;-76
2024/02/18 13:12:09;;;;;;;13.32;9.45;;;19.20;72.20;;;;;;5037501;28;20506;-76
2024/02/18 13:14:57;;;;;;;11.73;9.50;;;19.30;72.20;;;;;;5037789;28;20036;-76
2024/02/18 13:17:47;;;;;;;11.38;9.30;;;19.40;72.20;;;;;;5034771;28;20087;-77
2024/02/18 13:20:33;;;;;;;13.40;10.80;;;19.50;72.00;;;;;;5037555;28;20043;-77
2024/02/18 13:23:17;;;;;;;13.75;11.63;;;19.60;72.00;;;;;;5038167;28;20043;-77
2024/02/18 13:26:02;;;;;;;15.10;12.50;;;19.70;71.90;;;;;;5038630;28;20036;-77
2024/02/18 13:28:49;;;;;;;14.32;12.77;;;19.80;71.70;;;;;;5031635;28;20163;-78
2024/02/18 13:31:34;;;;;;;13.90;11.90;;;19.90;71.50;;;;;;5036683;28;20115;-81
2024/02/18 13:34:18;;;;;;;12.75;10.57;;;20.00;71.20;;;;;;5037712;28;20403;-78
2024/02/18 13:37:03;;;;;;;11.65;9.48;;;20.10;71.00;;;;;;5036645;28;20414;-78
2024/02/18 13:39:49;;;;;;;11.93;10.52;;;20.10;70.70;;;;;;5038358;28;20055;-78
2024/02/18 13:42:34;;;;;;;11.15;9.75;;;20.20;70.70;;;;;;5034866;28;20079;-79
2024/02/18 13:45:18;;;;;;;11.85;10.13;;;20.10;70.30;;;;;;5016484;28;20040;-79
2024/02/18 13:48:03;;;;;;;11.93;9.40;;;20.10;70.10;;;;;;5037637;28;20424;-79
2024/02/18 13:50:47;;;;;;;10.90;8.43;;;20.10;70.00;;;;;;5036996;28;20047;-79
2024/02/18 13:53:32;;;;;;;9.70;8.10;;;20.10;69.80;;;;;;5033342;28;20142;-79
2024/02/18 13:56:16;;;;;;;11.43;8.02;;;20.10;69.70;;;;;;5029146;28;20048;-79
2024/02/18 13:59:01;;;;;;;9.57;7.88;;;20.10;69.60;;;;;;5023299;28;20040;-79
2024/02/18 14:01:46;;;;;;;9.75;7.35;;;20.00;69.30;;;;;;5037667;28;20044;-79
2024/02/18 14:04:31;;;;;;;9.18;7.22;;;20.00;69.20;;;;;;5032201;28;20507;-79
2024/02/18 14:07:19;;;;;;;8.98;6.20;;;20.00;69.10;;;;;;5032446;28;20092;-78
2024/02/18 14:10:05;;;;;;;9.65;6.57;;;20.10;69.10;;;;;;5034075;28;20059;-77
2024/02/18 14:12:50;;;;;;;8.18;7.00;;;20.00;68.80;;;;;;5038431;28;20086;-77
2024/02/18 14:15:35;;;;;;;9.02;6.40;;;20.10;68.80;;;;;;5034550;28;20519;-77
2024/02/18 14:18:20;;;;;;;7.82;5.57;;;20.10;68.60;;;;;;5041001;28;20070;-77